Terminal Aerodrome Forecast
Issued by NWS

Home | Current Version | Previous Version | Text Only | Print | Product List | Glossary Off
Versions: 1 2 3 4 5 6 7 8 9 10 11 12 13 14 15 16 17

526
FTUS43 KTOP 142336
TAFFOE
TAF
KFOE 142336Z 1500/1524 29017G28KT P6SM -RA VCTS SCT023CB BKN050
     FM150200 32019G30KT P6SM VCSH BKN023
     FM150900 32014KT P6SM BKN030
     FM151100 31011KT P6SM FEW250=

USA.gov is the U.S. government's official web portal to all federal, state and local government web resources and services.